createdAt,value
2022-09-20T00:00:47.367Z,36.20
2022-09-20T00:03:15.355Z,36.03
2022-09-20T00:05:44.490Z,36.95
2022-09-20T00:08:16.695Z,39.17
2022-09-20T00:10:43.680Z,37.15
2022-09-20T00:13:13.593Z,34.25
2022-09-20T00:15:44.820Z,33.63
2022-09-20T00:18:12.068Z,33.83
2022-09-20T00:20:48.910Z,36.92
2022-09-20T00:23:16.296Z,35.00
2022-09-20T00:25:43.517Z,32.42
2022-09-20T00:28:11.214Z,34.38
2022-09-20T00:30:38.220Z,36.83
2022-09-20T00:33:04.980Z,29.80
2022-09-20T00:35:31.596Z,33.45
2022-09-20T00:37:58.128Z,34.10
2022-09-20T00:40:27.056Z,29.88
2022-09-20T00:42:53.941Z,31.88
2022-09-20T00:45:25.951Z,29.95
2022-09-20T00:48:15.934Z,31.70
2022-09-20T00:50:47.082Z,30.48
2022-09-20T00:53:18.857Z,31.97
2022-09-20T00:55:50.067Z,31.30
2022-09-20T00:58:20.019Z,33.63
2022-09-20T01:00:48.802Z,33.88
2022-09-20T01:03:20.583Z,32.70
2022-09-20T01:05:47.160Z,33.92
2022-09-20T01:08:15.795Z,33.78
2022-09-20T01:10:43.031Z,34.47
2022-09-20T01:13:09.533Z,36.55
2022-09-20T01:15:38.391Z,31.52
2022-09-20T01:18:07.160Z,32.92
2022-09-20T01:20:38.838Z,33.80
2022-09-20T01:23:05.308Z,36.40
2022-09-20T01:25:56.937Z,31.60
2022-09-20T01:28:24.487Z,30.57
2022-09-20T01:31:25.684Z,29.42
2022-09-20T01:33:59.764Z,32.50
2022-09-20T01:36:50.884Z,35.60
2022-09-20T01:39:29.729Z,33.28
2022-09-20T01:42:06.565Z,34.58
2022-09-20T01:44:46.900Z,34.80
2022-09-20T01:47:35.667Z,33.28
2022-09-20T01:50:21.051Z,31.17
2022-09-20T01:52:50.860Z,32.90
2022-09-20T01:56:08.577Z,31.33
2022-09-20T01:59:23.310Z,33.00
2022-09-20T02:01:53.195Z,30.83
2022-09-20T02:04:44.754Z,30.95
2022-09-20T02:07:38.220Z,30.70
2022-09-20T02:10:17.680Z,30.40
2022-09-20T02:12:54.123Z,31.65
2022-09-20T02:15:42.716Z,31.48
2022-09-20T02:18:18.139Z,31.98
2022-09-20T02:20:56.196Z,31.58
2022-09-20T02:23:41.914Z,30.75
2022-09-20T02:26:26.868Z,29.50
2022-09-20T02:29:14.591Z,33.00
2022-09-20T02:32:07.369Z,33.13
2022-09-20T02:34:51.924Z,32.85
2022-09-20T02:37:30.688Z,33.42
2022-09-20T02:40:34.963Z,30.55
2022-09-20T02:43:23.228Z,28.80
2022-09-20T02:46:01.713Z,28.63
2022-09-20T02:48:42.680Z,28.35
2022-09-20T02:51:14.263Z,28.60
2022-09-20T02:54:03.623Z,29.77
2022-09-20T02:57:21.503Z,30.35
2022-09-20T03:00:02.176Z,29.45
2022-09-20T03:02:40.880Z,22.05
2022-09-20T03:05:19.570Z,30.42
2022-09-20T03:08:04.736Z,27.70
2022-09-20T03:11:02.131Z,28.08
2022-09-20T03:14:02.770Z,29.33
2022-09-20T03:16:57.869Z,27.02
2022-09-20T03:19:46.061Z,29.02
2022-09-20T03:22:38.528Z,28.15
2022-09-20T03:30:28.918Z,26.35
2022-09-20T03:33:29.955Z,25.33
2022-09-20T03:36:20.647Z,23.38
2022-09-20T03:39:18.379Z,24.95
2022-09-20T03:41:57.856Z,24.33
2022-09-20T03:44:36.717Z,23.38
2022-09-20T03:47:31.913Z,21.50
2022-09-20T03:50:04.534Z,23.52
2022-09-20T03:52:45.863Z,24.73
2022-09-20T03:55:14.064Z,23.77
2022-09-20T03:57:46.555Z,23.00
2022-09-20T04:00:31.632Z,21.70
2022-09-20T04:03:25.695Z,23.63
2022-09-20T04:05:58.059Z,20.45
2022-09-20T04:09:02.059Z,20.85
2022-09-20T04:11:42.662Z,21.27
2022-09-20T04:14:25.387Z,21.42
2022-09-20T04:17:05.809Z,22.38
2022-09-20T04:19:44.734Z,23.30
2022-09-20T04:22:11.942Z,22.60
2022-09-20T04:24:38.932Z,22.73
2022-09-20T04:27:10.391Z,22.63
2022-09-20T04:29:46.460Z,21.15
2022-09-20T04:32:32.195Z,21.58
2022-09-20T04:35:39.577Z,20.33
2022-09-20T04:38:14.801Z,20.02
2022-09-20T04:41:34.372Z,23.05
2022-09-20T04:44:13.001Z,20.55
2022-09-20T04:46:39.501Z,20.40
2022-09-20T04:49:24.784Z,21.40
2022-09-20T04:52:22.289Z,20.73
2022-09-20T04:55:16.607Z,23.65
2022-09-20T04:58:01.504Z,21.05
2022-09-20T05:00:55.843Z,26.42
2022-09-20T05:03:41.264Z,23.88
2022-09-20T05:06:16.816Z,24.65
2022-09-20T05:09:08.226Z,22.88
2022-09-20T05:11:48.524Z,24.63
2022-09-20T05:14:38.584Z,24.95
2022-09-20T05:17:41.455Z,24.70
2022-09-20T05:20:40.205Z,23.95
2022-09-20T05:23:31.068Z,25.63
2022-09-20T05:26:08.001Z,25.70
2022-09-20T05:29:02.308Z,24.50
2022-09-20T05:31:38.904Z,24.80
2022-09-20T05:34:33.010Z,24.63
2022-09-20T05:37:12.265Z,25.45
2022-09-20T05:39:50.236Z,25.05
2022-09-20T05:42:23.041Z,22.27
2022-09-20T05:45:07.871Z,24.30
2022-09-20T05:47:55.088Z,25.15
2022-09-20T05:50:27.466Z,23.45
2022-09-20T05:52:59.326Z,22.90
2022-09-20T05:55:44.455Z,23.13
2022-09-20T05:58:38.973Z,24.17
2022-09-20T06:01:29.785Z,24.45
2022-09-20T06:04:12.698Z,23.70
2022-09-20T06:06:57.363Z,23.77
2022-09-20T06:09:45.296Z,25.77
2022-09-20T06:12:38.259Z,24.17
2022-09-20T06:15:19.683Z,23.65
2022-09-20T06:18:15.227Z,23.00
2022-09-20T06:21:00.344Z,21.67
2022-09-20T06:23:27.587Z,23.85
2022-09-20T06:25:59.839Z,22.17
2022-09-20T06:28:30.816Z,21.75
2022-09-20T06:30:57.512Z,22.70
2022-09-20T06:33:25.466Z,21.13
2022-09-20T06:35:59.183Z,23.00
2022-09-20T06:39:02.684Z,22.30
2022-09-20T06:41:32.390Z,20.95
2022-09-20T06:44:05.465Z,20.92
2022-09-20T06:46:34.321Z,21.10
2022-09-20T06:49:01.037Z,19.02
2022-09-20T06:51:33.665Z,19.90
2022-09-20T06:54:01.853Z,20.25
2022-09-20T06:56:31.304Z,20.02
2022-09-20T06:58:58.140Z,18.80
2022-09-20T07:01:30.097Z,18.75
2022-09-20T07:03:58.585Z,17.55
2022-09-20T07:06:25.391Z,19.23
2022-09-20T07:08:52.077Z,21.58
2022-09-20T07:11:18.895Z,19.00
2022-09-20T07:13:50.726Z,20.55
2022-09-20T07:16:17.693Z,18.92
2022-09-20T07:18:44.279Z,19.80
2022-09-20T07:21:18.959Z,19.40
2022-09-20T07:23:46.079Z,18.88
2022-09-20T07:26:27.797Z,19.73
2022-09-20T07:28:55.411Z,21.10
2022-09-20T07:31:24.154Z,18.25
2022-09-20T07:33:53.747Z,17.80
2022-09-20T07:36:20.551Z,16.88
2022-09-20T07:38:50.112Z,17.27
2022-09-20T07:41:19.045Z,17.25
2022-09-20T07:43:46.551Z,18.45
2022-09-20T07:46:15.989Z,16.23
2022-09-20T07:48:42.680Z,19.67
2022-09-20T07:51:13.558Z,16.13
2022-09-20T07:53:41.111Z,16.27
2022-09-20T07:56:18.343Z,14.93
2022-09-20T07:58:48.726Z,15.82
2022-09-20T08:01:21.002Z,13.00
2022-09-20T08:03:47.852Z,14.18
2022-09-20T08:06:16.279Z,16.00
2022-09-20T08:08:43.451Z,13.38
2022-09-20T08:11:12.719Z,12.75
2022-09-20T08:16:28.957Z,8.40
2022-09-20T08:18:58.739Z,10.65
2022-09-20T08:21:27.743Z,10.23
2022-09-20T08:23:54.448Z,10.55
2022-09-20T08:26:24.512Z,8.65
2022-09-20T08:28:53.216Z,8.48
2022-09-20T08:31:22.048Z,7.57
2022-09-20T08:33:50.396Z,7.15
2022-09-20T08:36:22.494Z,6.13
2022-09-20T08:41:39.394Z,6.43
2022-09-20T08:44:14.930Z,7.15
2022-09-20T08:46:56.175Z,5.25
2022-09-20T08:49:27.552Z,5.07
2022-09-20T08:51:58.005Z,4.13
2022-09-20T08:54:32.688Z,3.45
2022-09-20T08:57:10.833Z,5.03
2022-09-20T08:59:37.454Z,4.13
2022-09-20T09:02:14.018Z,4.40
2022-09-20T09:04:44.697Z,4.57
2022-09-20T09:07:16.252Z,4.13
2022-09-20T09:09:47.308Z,4.32
2022-09-20T09:12:20.907Z,4.18
2022-09-20T09:14:57.077Z,4.80
2022-09-20T09:17:29.597Z,4.97
2022-09-20T09:20:15.371Z,4.53
2022-09-20T09:22:45.515Z,5.60
2022-09-20T09:25:15.229Z,4.93
2022-09-20T09:27:58.468Z,5.85
2022-09-20T09:30:36.027Z,5.55
2022-09-20T09:33:30.712Z,5.68
2022-09-20T09:36:08.926Z,5.25
2022-09-20T09:38:41.478Z,4.97
2022-09-20T09:41:26.852Z,4.88
2022-09-20T09:44:10.387Z,5.55
2022-09-20T09:46:40.032Z,5.25
2022-09-20T09:49:12.079Z,4.50
2022-09-20T09:51:42.416Z,6.00
2022-09-20T09:54:17.685Z,4.88
2022-09-20T09:56:57.322Z,4.15
2022-09-20T09:59:29.891Z,3.90
2022-09-20T10:02:30.885Z,4.70
2022-09-20T10:05:22.375Z,5.05
2022-09-20T10:08:10.957Z,4.60
2022-09-20T10:11:10.180Z,5.78
2022-09-20T10:13:40.896Z,4.80
2022-09-20T10:16:10.533Z,5.05
2022-09-20T10:18:44.041Z,5.55
2022-09-20T10:21:43.417Z,6.25
2022-09-20T10:24:30.231Z,7.38
2022-09-20T10:27:22.551Z,5.53
2022-09-20T10:32:45.745Z,6.03
2022-09-20T10:35:27.635Z,7.00
2022-09-20T10:37:54.383Z,5.43
2022-09-20T10:40:53.616Z,4.32
2022-09-20T10:43:41.858Z,3.28
2022-09-20T10:46:31.476Z,3.58
2022-09-20T10:49:24.861Z,3.25
2022-09-20T10:52:00.783Z,3.33
2022-09-20T10:55:03.513Z,4.65
2022-09-20T10:58:07.473Z,4.30
2022-09-20T11:01:03.730Z,4.05
2022-09-20T11:03:51.184Z,4.88
2022-09-20T11:06:50.520Z,5.95
2022-09-20T11:09:27.464Z,4.18
2022-09-20T11:12:03.384Z,4.70
2022-09-20T11:14:41.328Z,4.75
2022-09-20T11:17:15.761Z,3.70
2022-09-20T11:20:07.674Z,5.05
2022-09-20T11:22:43.687Z,4.63
2022-09-20T11:25:51.895Z,6.90
2022-09-20T11:28:28.100Z,4.70
2022-09-20T11:31:02.440Z,4.93
2022-09-20T11:33:40.754Z,5.60
2022-09-20T11:36:17.597Z,5.70
2022-09-20T11:38:53.627Z,5.90
2022-09-20T11:41:27.215Z,4.50
2022-09-20T11:43:57.291Z,5.00
2022-09-20T11:46:55.888Z,6.22
2022-09-20T11:49:28.535Z,3.90
2022-09-20T11:52:38.185Z,3.97
2022-09-20T11:55:16.596Z,4.18
2022-09-20T11:57:43.756Z,3.03
2022-09-20T12:00:10.629Z,3.50
2022-09-20T12:02:53.364Z,3.08
2022-09-20T12:05:38.956Z,3.30
2022-09-20T12:08:20.768Z,2.90
2022-09-20T12:10:58.912Z,3.35
2022-09-20T12:13:27.647Z,4.10
2022-09-20T12:16:01.170Z,3.58
2022-09-20T12:18:39.180Z,3.13
2022-09-20T12:21:07.377Z,4.03
2022-09-20T12:23:42.942Z,3.20
2022-09-20T12:26:18.682Z,2.42
2022-09-20T12:28:50.955Z,2.78
2022-09-20T12:31:30.904Z,2.17
2022-09-20T12:34:10.624Z,1.02
2022-09-20T12:36:38.583Z,1.58
2022-09-20T12:39:19.100Z,1.98
2022-09-20T12:41:58.556Z,1.60
2022-09-20T12:44:25.056Z,1.88
2022-09-20T12:47:00.118Z,1.02
2022-09-20T12:49:48.496Z,1.00
2022-09-20T12:52:56.153Z,1.48
2022-09-20T12:55:26.135Z,1.17
2022-09-20T12:58:01.922Z,1.20
2022-09-20T13:00:37.038Z,1.45
2022-09-20T13:03:37.210Z,1.17
2022-09-20T13:06:06.675Z,1.52
2022-09-20T13:09:00.776Z,1.60
2022-09-20T13:11:42.450Z,2.45
2022-09-20T13:14:18.618Z,2.35
2022-09-20T13:16:50.053Z,1.73
2022-09-20T13:19:20.504Z,1.90
2022-09-20T13:22:10.302Z,2.67
2022-09-20T13:24:45.021Z,2.20
2022-09-20T13:27:20.197Z,2.58
2022-09-20T13:29:47.265Z,2.40
2022-09-20T13:32:17.051Z,2.33
2022-09-20T13:34:43.883Z,2.10
2022-09-20T13:37:20.997Z,3.97
2022-09-20T13:39:52.947Z,2.78
2022-09-20T13:42:19.821Z,2.33
2022-09-20T13:44:48.407Z,3.70
2022-09-20T13:47:29.269Z,4.85
2022-09-20T13:50:23.220Z,9.15
2022-09-20T13:52:54.076Z,7.93
2022-09-20T13:55:27.041Z,3.05
2022-09-20T13:57:56.651Z,3.17
2022-09-20T14:00:27.823Z,2.55
2022-09-20T14:02:55.480Z,2.80
2022-09-20T14:05:26.275Z,3.58
2022-09-20T14:07:53.788Z,4.07
2022-09-20T14:10:31.874Z,3.15
2022-09-20T14:13:02.066Z,5.72
2022-09-20T14:15:36.396Z,4.65
2022-09-20T14:18:07.039Z,4.68
2022-09-20T14:20:34.319Z,4.50
2022-09-20T14:23:04.051Z,3.15
2022-09-20T14:25:30.937Z,4.72
2022-09-20T14:28:19.917Z,4.50
2022-09-20T14:30:48.345Z,3.85
2022-09-20T14:33:19.427Z,3.10
2022-09-20T14:35:52.940Z,3.00
2022-09-20T14:38:24.773Z,2.97
2022-09-20T14:40:52.300Z,4.72
2022-09-20T14:43:33.782Z,3.05
2022-09-20T14:46:28.508Z,2.38
2022-09-20T14:48:55.288Z,2.25
2022-09-20T14:51:25.192Z,2.80
2022-09-20T14:54:12.903Z,4.20
2022-09-20T14:56:42.619Z,3.30
2022-09-20T14:59:13.845Z,2.90
2022-09-20T15:01:44.954Z,4.27
2022-09-20T15:04:21.582Z,4.20
2022-09-20T15:06:50.049Z,6.13
2022-09-20T15:09:19.363Z,3.47
2022-09-20T15:11:46.294Z,3.72
2022-09-20T15:14:12.837Z,3.28
2022-09-20T15:16:39.457Z,3.45
2022-09-20T15:19:07.982Z,3.55
2022-09-20T15:21:34.601Z,3.65
2022-09-20T15:24:01.381Z,3.83
2022-09-20T15:26:27.986Z,3.70
2022-09-20T15:28:54.651Z,4.25
2022-09-20T15:31:22.172Z,3.78
2022-09-20T15:33:48.719Z,3.97
2022-09-20T15:36:18.932Z,3.80
2022-09-20T15:38:45.670Z,3.70
2022-09-20T15:41:14.355Z,4.82
2022-09-20T15:43:43.178Z,5.40
2022-09-20T15:46:22.106Z,4.88
2022-09-20T15:48:48.732Z,4.88
2022-09-20T15:51:15.455Z,5.38
2022-09-20T15:53:49.324Z,4.22
2022-09-20T15:56:21.172Z,4.38
2022-09-20T15:58:59.385Z,4.65
2022-09-20T16:01:28.213Z,5.68
2022-09-20T16:03:55.939Z,8.35
2022-09-20T16:06:23.809Z,7.68
2022-09-20T16:08:51.916Z,7.13
2022-09-20T16:11:22.942Z,7.47
2022-09-20T16:13:54.823Z,7.43
2022-09-20T16:16:21.822Z,4.45
2022-09-20T16:19:07.417Z,5.20
2022-09-20T16:21:36.457Z,5.00
2022-09-20T16:24:03.293Z,5.43
2022-09-20T16:26:31.318Z,4.38
2022-09-20T16:28:58.330Z,6.07
2022-09-20T16:31:34.522Z,6.55
2022-09-20T16:34:12.612Z,6.25
2022-09-20T16:36:43.411Z,6.32
2022-09-20T16:39:10.973Z,4.60
2022-09-20T16:41:39.069Z,6.70
2022-09-20T16:44:06.157Z,4.82
2022-09-20T16:46:37.003Z,4.65
2022-09-20T16:49:07.032Z,4.53
2022-09-20T16:51:36.422Z,6.10
2022-09-20T16:54:32.099Z,4.90
2022-09-20T16:57:00.430Z,4.15
2022-09-20T16:59:27.210Z,4.13
2022-09-20T17:01:55.807Z,3.78
2022-09-20T17:04:22.574Z,3.58
2022-09-20T17:06:50.246Z,4.72
2022-09-20T17:09:17.100Z,4.70
2022-09-20T17:11:47.043Z,4.30
2022-09-20T17:14:16.333Z,4.82
2022-09-20T17:16:43.712Z,4.78
2022-09-20T17:19:13.106Z,5.03
2022-09-20T17:21:46.194Z,4.45
2022-09-20T17:24:14.077Z,5.68
2022-09-20T17:26:44.419Z,5.30
2022-09-20T17:29:15.392Z,5.43
2022-09-20T17:31:48.748Z,4.75
2022-09-20T17:34:21.457Z,4.63
2022-09-20T17:36:49.021Z,5.70
2022-09-20T17:39:16.459Z,4.50
2022-09-20T17:41:45.967Z,4.63
2022-09-20T17:44:13.199Z,4.20
2022-09-20T17:46:44.266Z,6.00
2022-09-20T17:49:13.008Z,10.07
2022-09-20T17:51:45.803Z,14.65
2022-09-20T17:54:13.979Z,11.52
2022-09-20T17:56:46.391Z,12.52
2022-09-20T17:59:16.303Z,11.18
2022-09-20T18:01:44.633Z,7.38
2022-09-20T18:04:11.993Z,6.30
2022-09-20T18:06:44.100Z,5.50
2022-09-20T18:11:41.488Z,4.90
2022-09-20T18:14:13.295Z,4.22
2022-09-20T18:16:40.325Z,5.32
2022-09-20T18:19:08.386Z,5.13
2022-09-20T18:21:36.831Z,5.53
2022-09-20T18:24:07.774Z,5.43
2022-09-20T18:26:35.468Z,5.28
2022-09-20T18:29:09.426Z,5.20
2022-09-20T18:31:39.067Z,5.35
2022-09-20T18:34:07.668Z,5.32
2022-09-20T18:36:38.576Z,4.70
2022-09-20T18:39:06.540Z,4.95
2022-09-20T18:41:35.926Z,5.38
2022-09-20T18:44:04.228Z,6.40
2022-09-20T18:46:31.284Z,4.80
2022-09-20T18:49:02.351Z,5.22
2022-09-20T18:51:29.111Z,5.90
2022-09-20T18:53:56.661Z,6.00
2022-09-20T18:56:31.923Z,5.95
2022-09-20T18:59:07.991Z,5.78
2022-09-20T19:02:12.324Z,7.03
2022-09-20T19:05:14.782Z,6.35
2022-09-20T19:07:50.694Z,6.15
2022-09-20T19:10:49.321Z,6.80
2022-09-20T19:14:11.895Z,7.07
2022-09-20T19:16:38.655Z,6.28
2022-09-20T19:19:33.824Z,7.32
2022-09-20T19:22:08.088Z,7.80
2022-09-20T19:24:55.535Z,8.65
2022-09-20T19:27:23.429Z,8.50
2022-09-20T19:29:50.286Z,8.60
2022-09-20T19:32:21.143Z,8.80
2022-09-20T19:34:52.099Z,9.70
2022-09-20T19:37:36.598Z,9.50
2022-09-20T19:40:59.505Z,10.90
2022-09-20T19:43:38.330Z,10.57
2022-09-20T19:46:19.054Z,9.43
2022-09-20T19:49:12.859Z,8.65
2022-09-20T19:51:41.373Z,10.88
2022-09-20T19:54:12.057Z,10.57
2022-09-20T19:56:52.893Z,10.13
2022-09-20T19:59:24.714Z,12.10
2022-09-20T20:01:52.500Z,13.73
2022-09-20T20:04:20.584Z,18.67
2022-09-20T20:06:50.399Z,14.45
2022-09-20T20:09:43.489Z,13.60
2022-09-20T20:12:34.121Z,16.58
2022-09-20T20:15:05.691Z,13.50
2022-09-20T20:17:48.464Z,15.93
2022-09-20T20:20:43.892Z,14.98
2022-09-20T20:23:19.149Z,16.23
2022-09-20T20:26:13.836Z,18.85
2022-09-20T20:28:40.460Z,16.45
2022-09-20T20:31:09.143Z,17.50
2022-09-20T20:33:36.877Z,15.93
2022-09-20T20:36:03.512Z,15.07
2022-09-20T20:38:37.229Z,15.63
2022-09-20T20:41:09.648Z,12.57
2022-09-20T20:43:42.003Z,16.77
2022-09-20T20:46:12.160Z,14.60
2022-09-20T20:48:38.699Z,15.07
2022-09-20T20:51:12.608Z,15.07
2022-09-20T20:53:45.194Z,15.32
2022-09-20T20:56:17.139Z,13.93
2022-09-20T20:58:45.028Z,16.00
2022-09-20T21:01:15.723Z,16.58
2022-09-20T21:03:46.365Z,15.77
2022-09-20T21:06:14.780Z,15.45
2022-09-20T21:08:48.310Z,16.52
2022-09-20T21:11:19.747Z,18.63
2022-09-20T21:13:48.336Z,17.80
2022-09-20T21:16:17.827Z,15.40
2022-09-20T21:18:46.428Z,16.27
2022-09-20T21:21:27.397Z,15.93
2022-09-20T21:23:59.447Z,16.08
2022-09-20T21:26:28.276Z,15.60
2022-09-20T21:28:59.640Z,15.80
2022-09-20T21:31:28.474Z,15.35
2022-09-20T21:33:56.020Z,14.40
2022-09-20T21:36:25.292Z,13.63
2022-09-20T21:38:52.378Z,12.98
2022-09-20T21:41:27.503Z,13.05
2022-09-20T21:43:57.086Z,14.55
2022-09-20T21:46:32.582Z,11.82
2022-09-20T21:49:01.558Z,12.90
2022-09-20T21:51:31.219Z,15.40
2022-09-20T21:53:59.658Z,16.67
2022-09-20T21:56:28.865Z,14.27
2022-09-20T21:58:55.775Z,18.25
2022-09-20T22:01:25.300Z,15.00
2022-09-20T22:03:56.464Z,13.63
2022-09-20T22:06:29.552Z,14.57
2022-09-20T22:08:58.406Z,14.60
2022-09-20T22:11:27.492Z,13.50
2022-09-20T22:13:55.631Z,12.82
2022-09-20T22:16:30.719Z,13.02
2022-09-20T22:18:59.640Z,12.85
2022-09-20T22:21:36.648Z,12.68
2022-09-20T22:24:08.553Z,14.05
2022-09-20T22:26:39.961Z,13.25
2022-09-20T22:29:06.612Z,13.07
2022-09-20T22:31:36.799Z,14.02
2022-09-20T22:34:05.867Z,11.35
2022-09-20T22:36:35.335Z,10.43
2022-09-20T22:39:03.735Z,11.43
2022-09-20T22:41:30.284Z,9.50
2022-09-20T22:43:56.819Z,10.10
2022-09-20T22:46:25.652Z,9.57
2022-09-20T22:48:52.585Z,10.20
2022-09-20T22:51:21.859Z,9.25
2022-09-20T22:53:49.313Z,8.63
2022-09-20T22:56:24.864Z,7.25
2022-09-20T22:58:56.094Z,8.27
2022-09-20T23:01:25.277Z,6.97
2022-09-20T23:03:57.842Z,8.30
2022-09-20T23:06:28.064Z,7.57
2022-09-20T23:08:59.018Z,7.47
2022-09-20T23:11:26.123Z,8.27
2022-09-20T23:13:54.980Z,7.22
2022-09-20T23:16:28.139Z,8.05
2022-09-20T23:18:56.303Z,6.50
2022-09-20T23:21:23.104Z,7.35
2022-09-20T23:24:09.755Z,6.95
2022-09-20T23:26:38.735Z,6.53
2022-09-20T23:29:08.108Z,7.05
2022-09-20T23:31:37.043Z,6.95
2022-09-20T23:34:05.894Z,7.35
2022-09-20T23:36:35.510Z,5.53
2022-09-20T23:39:02.075Z,5.38
2022-09-20T23:41:28.859Z,6.25
2022-09-20T23:43:55.604Z,5.13
2022-09-20T23:46:25.302Z,4.32
2022-09-20T23:48:52.614Z,4.75
2022-09-20T23:51:22.493Z,6.18
2022-09-20T23:53:49.531Z,6.18
2022-09-20T23:56:16.035Z,7.07
2022-09-20T23:58:44.051Z,4.75
